Absecon City, New Jersey
Current Conditions -  °F | °C
As of 4:54 AM on Saturday 25 Oct 2014 (Local Time) from KACY Reporting Station
Clear Clear  
Wind Chill: 39°   Ceiling: Unl
Heat Index: 43°   Visibility: 10mi
Dew Point: 38°   Wind: 7mph
Humidity: 82%   Direction: 300°WNW
Pressure: 29.9"   Gusts: NA
Location:  39.4315°N, 74.5003°W
Report Text: KACY 250854Z 30006KT 10SM CLR 06/03 A2990 RMK AO2 SLP125 T00610033 51005
Loading
Personal Weather Stations






























Interactive Weather Map
Tropical Storm Tracking
New forecast layout! Learn more

10-Day Weather Forecast

Advertisements
Track Severe Weather on mobile